Weather observations for the past three days for
Pratt Municipal
Imperial (Metric)
Date Time (cdt) Wind (mph) Vis. (mi.) Weather Sky Cond. Temperature (ºF) Relative Humidity Wind Chill (°F) Heat Index (°F) Pressure Precipitation (in)
Air Dwpt 6 hour altimeter (in) sea level (mb) 1 hr 3 hr 6 hr
Max. Min.
31 00:35 S 13 10.00 Fair CLR 85.6 56.8 38% 85 29.93 0.0
31 00:20 S 15 10.00 Fair CLR 86.7 56.8 36% 85 29.93 0.0
30 23:30 S 15 10.00 Fair CLR 89.1 57.2 34% 88 29.89 0.0
30 23:15 S 13 10.00 Fair CLR 89.6 57.4 34% 88 29.89 0.0
30 22:50 S 14 10.00 Fair CLR 90.5 57.4 33% 89 29.88 0.0
30 22:35 S 14 G 20 10.00 Fair CLR 91.4 57.6 32% 90 29.88 0.0
30 22:15 S 16 10.00 Fair CLR 91.8 57.7 32% 91 29.88 0.0
30 21:55 S 12 10.00 Fair CLR 92.3 57.7 31% 91 29.88 0.0
30 21:35 S 13 10.00 Fair CLR 93.6 57.4 30% 92 29.88 0.0
30 21:15 S 12 10.00 Fair CLR 94.1 57 29% 93 29.87 0.0
30 20:55 S 12 10.00 Fair CLR 94.5 56.7 28% 93 29.87 0.0
30 20:35 S 13 10.00 Fair CLR 95.9 55.9 26% 94 29.86 0.0
30 20:15 S 10 10.00 Fair CLR 97.5 55.6 25% 96 29.85 0.0
30 19:55 S 17 G 23 10.00 Fair CLR 98.8 55.6 24% 97 29.85 0.0
30 19:35 S 16 10.00 Fair CLR 99.7 55.6 23% 98 29.85 0.0
30 19:15 S 18 10.00 Fair CLR 100.8 55.4 22% 99 29.85 0.0
30 18:55 S 20 G 24 10.00 Fair CLR 102 55 106.5 101.5 21% 101 29.85 0.0
30 18:35 S 20 G 25 10.00 Fair CLR 102.9 55 20% 102 29.84 0.0
30 18:15 S 23 G 31 10.00 Fair and Breezy CLR 103.6 54.9 20% 102 29.84 0.0
30 17:55 S 21 G 26 10.00 Fair and Breezy CLR 104.5 54.7 19% 103 29.84 0.0
30 17:35 S 21 G 26 10.00 Fair and Breezy CLR 105.1 54.9 19% 104 29.84 0.0
30 17:15 S 18 G 26 10.00 Fair CLR 105.6 54.3 18% 104 29.83 0.0
30 16:55 S 23 G 26 10.00 Fair and Breezy CLR 105.6 54 18% 104 29.84 0.0
30 16:35 S 18 G 30 10.00 Fair CLR 105.8 54 18% 104 29.83 0.0
30 16:15 S 25 G 31 10.00 Fair and Breezy CLR 106.2 54.3 18% 105 29.84 0.0
30 15:55 SW 22 G 29 10.00 Fair and Breezy CLR 106 54.7 18% 105 29.85 0.0
30 15:35 SW 21 G 29 10.00 Fair and Breezy CLR 105.8 55.2 19% 105 29.85 0.0
30 15:15 S 17 G 28 10.00 Fair CLR 105.8 55.4 19% 105 29.86 0.0
30 14:55 SW 16 G 29 10.00 Fair CLR 105.8 56.3 20% 105 29.87 0.0
30 14:35 SW 22 10.00 Fair and Breezy CLR 105.1 57.4 21% 105 29.88 0.0
30 14:15 SW 15 G 26 10.00 Fair CLR 104 57 21% 104 29.88 0.0
30 13:55 S 21 G 26 10.00 Fair and Breezy CLR 104.2 56.7 21% 104 29.88 0.0
30 13:35 S 20 G 28 10.00 Fair CLR 104 57.2 21% 104 29.88 0.0
30 13:15 S 16 G 25 10.00 Fair CLR 102.7 57.2 22% 102 29.89 0.0
30 12:55 S 21 G 29 10.00 Fair and Breezy CLR 101.3 57.4 101.7 77.5 23% 101 29.9 0.0
30 12:35 SW 21 G 29 10.00 Fair and Breezy CLR 100.4 58.3 25% 100 29.9 0.0
30 12:15 S 23 G 28 10.00 Fair and Breezy CLR 99.1 58.5 26% 99 29.91 0.0
30 11:55 S 24 G 29 10.00 Fair and Breezy CLR 97.7 58.1 27% 97 29.91 0.0
30 11:35 S 21 G 28 10.00 Fair and Breezy CLR 96.3 59.2 29% 96 29.91 0.0
30 11:15 S 20 G 26 10.00 Fair CLR 94.8 58.3 29% 94 29.92 0.0
30 10:55 S 24 10.00 Fair and Breezy CLR 92.5 59.2 33% 92 29.91 0.0
30 10:35 S 25 G 30 10.00 Fair and Breezy CLR 91.4 58.8 34% 91 29.9 0.0
30 10:15 S 25 G 30 10.00 Fair and Breezy CLR 89.4 59 36% 89 29.91 0.0
30 09:55 S 20 G 29 10.00 Fair CLR 86.9 59 39% 86 29.91 0.0
30 09:35 S 22 G 32 10.00 Fair and Breezy CLR 85.1 58.3 40% 84 29.92 0.0
30 09:15 S 21 10.00 Fair and Breezy CLR 83.7 58.3 42% 83 29.92 0.0
30 08:55 S 20 G 25 10.00 Fair CLR 82.6 58.1 43% 82 29.93 0.0
30 08:35 S 17 G 22 10.00 Fair CLR 81.1 57.7 45% 81 29.93 0.0
30 08:15 S 20 10.00 Fair CLR 79.3 57.4 47% 80 29.92 0.0
30 07:55 S 16 10.00 Fair CLR 78.6 57.2 48% 80 29.92 0.0
30 07:35 S 14 10.00 Fair CLR 78.1 56.8 48% 79 29.93 0.0
30 07:15 S 14 10.00 Fair CLR 77.5 56.5 48% 79 29.92 0.0
30 06:55 S 17 10.00 Fair CLR 78.1 56.5 85.3 78.1 48% 79 29.92 0.0
30 06:35 S 16 10.00 Fair CLR 78.4 56.3 47% 79 29.91 0.0
30 06:15 S 17 10.00 Fair CLR 79 56.3 46% 80 29.91 0.0
30 05:55 S 17 G 22 10.00 Fair CLR 79 56.3 46% 80 29.91 0.0
30 05:35 S 16 10.00 Fair CLR 79.7 56.3 45% 80 29.91 0.0
30 05:15 S 15 10.00 Fair CLR 79.5 55.9 44% 80 29.92 0.0
30 04:55 S 13 G 17 10.00 Fair CLR 79.7 55.6 44% 80 29.92 0.0
30 04:35 S 15 10.00 Fair CLR 79.7 55.4 43% 80 29.92 0.0
30 04:15 S 15 10.00 Fair CLR 79.7 55.2 43% 80 29.92 0.0
30 03:55 S 15 10.00 Fair CLR 81 54.9 41% 81 29.92 0.0
30 03:35 S 16 10.00 Fair CLR 81.5 54.5 39% 81 29.92 0.0
30 03:15 S 17 10.00 Fair CLR 80.8 54.5 40% 81 29.92 0.0
30 02:55 S 14 10.00 Fair CLR 81 54.3 40% 81 29.92 0.0
30 02:35 S 16 G 22 10.00 Fair CLR 81.9 54 38% 81 29.92 0.0
30 02:15 S 17 G 24 10.00 Fair CLR 82.8 53.6 37% 82 29.92 0.0
30 01:55 S 16 G 22 10.00 Fair CLR 83.3 53.8 36% 82 29.92 0.0
30 01:35 S 16 10.00 Fair CLR 83.5 53.8 36% 82 29.92 0.0
30 01:15 S 14 10.00 Fair CLR 84.6 53.8 35% 83 29.92 0.0
30 00:55 S 15 10.00 Fair CLR 85.5 53.6 100.2 85.5 34% 84 29.92 0.0
30 00:35 S 17 G 22 10.00 Fair CLR 86.4 53.8 33% 85 29.92 0.0
30 00:15 S 18 G 24 10.00 Fair CLR 87.1 53.8 32% 85 29.92 0.0
29 23:55 S 16 G 22 10.00 Fair CLR 88 54 31% 86 29.92 0.0
29 23:35 S 15 G 22 10.00 Fair CLR 88.7 54 31% 87 29.92 0.0
29 23:15 S 15 10.00 Fair CLR 89.2 54.1 30% 87 29.92 0.0
29 22:55 S 18 G 22 10.00 Fair CLR 90 54.1 30% 88 29.92 0.0
29 22:35 S 16 G 23 10.00 Fair CLR 90.5 53.8 29% 88 29.92 0.0
29 22:15 S 15 G 21 10.00 Fair CLR 90.5 53.4 28% 88 29.91 0.0
29 21:55 S 15 G 20 10.00 Fair CLR 91.4 53.2 27% 89 29.9 0.0
29 21:35 S 17 G 22 10.00 Fair CLR 92.3 53.6 27% 90 29.89 0.0
29 21:15 S 14 10.00 Fair CLR 92.5 53.8 27% 90 29.89 0.0
29 20:55 S 12 10.00 Fair CLR 93.6 53.6 26% 91 29.88 0.0
29 20:35 S 13 10.00 Fair CLR 95.2 53.6 25% 93 29.88 0.0
29 20:15 S 15 10.00 Fair CLR 96.1 53.6 24% 94 29.87 0.0
29 19:55 S 16 G 23 10.00 Fair CLR 97 54 24% 95 29.87 0.0
29 19:35 S 20 10.00 Fair CLR 97.9 54.9 24% 96 29.87 0.0
29 19:15 S 22 G 26 10.00 Fair and Breezy CLR 99.5 54.9 22% 98 29.86 0.0
29 18:55 S 25 G 32 10.00 Fair and Breezy CLR 100.4 54.9 104.5 100.4 22% 99 29.86 0.0
29 18:35 S 22 G 26 10.00 Fair and Breezy CLR 101.1 55.4 22% 100 29.86 0.0
29 18:15 S 18 G 29 10.00 Fair CLR 102.2 55.4 21% 101 29.86 0.0
29 17:55 S 23 G 30 10.00 Fair and Breezy CLR 102.9 55.4 21% 102 29.86 0.0
29 17:35 S 22 G 29 10.00 Fair and Breezy CLR 103.3 55.4 20% 102 29.86 0.0
29 17:15 S 22 G 30 10.00 Fair and Breezy CLR 103.5 55.6 20% 102 29.87 0.0
29 16:55 S 20 G 28 10.00 Fair CLR 103.3 55.2 20% 102 29.87 0.0
29 16:35 S 20 G 31 10.00 Fair CLR 104.2 55.6 20% 103 29.88 0.0
29 16:15 S 22 G 31 10.00 Fair and Breezy CLR 103.8 55.8 20% 103 29.89 0.0
29 15:55 S 25 G 30 10.00 Fair and Breezy CLR 103.8 56.1 21% 103 29.9 0.0
29 15:35 S 18 G 31 10.00 Fair CLR 102.4 57.2 22% 102 29.91 0.0
29 15:15 S 18 G 24 10.00 Fair CLR 101.7 56.5 22% 101 29.91 0.0
29 14:55 SW 21 G 31 10.00 Fair and Breezy CLR 100.9 56.3 23% 100 29.92 0.0
29 14:35 SW 21 G 28 10.00 Fair and Breezy CLR 101.8 56.7 22% 101 29.93 0.0
29 14:15 SW 21 G 28 10.00 Fair and Breezy CLR 103.6 56.7 21% 103 29.94 0.0
29 13:55 SW 22 G 30 10.00 Fair and Breezy CLR 101.3 57 23% 101 29.94 0.0
29 13:35 SW 23 G 31 10.00 Fair and Breezy CLR 101.7 57.4 23% 101 29.95 0.0
29 13:15 S 21 G 28 10.00 Fair and Breezy CLR 100.9 58.1 24% 101 29.95 0.0
29 12:55 SW 18 G 30 10.00 Fair CLR 100.6 58.8 100.6 73.4 25% 101 29.97 0.0
29 12:35 SW 22 G 29 10.00 Fair and Breezy CLR 99 58.5 26% 99 29.98 0.0
29 12:15 SW 22 G 32 10.00 Fair and Breezy CLR 97.7 58.1 27% 97 29.99 0.0
29 11:55 SW 18 G 26 10.00 Fair CLR 96.8 58.5 28% 96 29.99 0.0
29 11:35 SW 21 G 28 10.00 Fair and Breezy CLR 94.3 57.9 30% 93 30 0.0
29 11:15 SW 22 G 28 10.00 Fair and Breezy CLR 92.8 57.2 30% 91 30.01 0.0
29 10:55 SW 20 G 25 10.00 Fair CLR 92.7 56.8 30% 91 30.01 0.0
29 10:35 S 18 10.00 Fair CLR 90 55.6 31% 88 30.01 0.0
29 10:15 S 18 10.00 Fair CLR 86.5 54.3 33% 85 30.02 0.0
29 09:55 S 16 10.00 Fair CLR 83.5 53.2 35% 82 30.02 0.0
29 09:35 S 16 G 22 10.00 Fair CLR 80.4 52.5 38% 80 30.02 0.0
29 09:15 S 14 10.00 Fair CLR 76.5 51.4 42% 78 30.03 0.0
29 08:55 S 13 10.00 Fair CLR 76.1 51.1 42% 78 30.03 0.0
29 08:35 S 13 10.00 Fair CLR 75.4 50.9 42% 78 30.04 0.0
29 08:15 S 12 10.00 Fair CLR 74.5 50.9 44% 30.03 0.0
29 07:55 S 13 10.00 Fair CLR 74.3 50.9 44% 30.03 0.0
29 07:35 S 12 10.00 Fair CLR 74.3 50.5 43% 30.03 0.0
29 07:15 S 12 10.00 Fair CLR 74.1 50.9 44% 30.03 0.0
29 06:55 S 12 10.00 Fair CLR 73.4 50.9 81 73.2 45% 30.03 0.0
29 06:35 S 13 10.00 Fair CLR 73.2 51.1 46% 30.03 0.0
29 06:15 S 9 10.00 Fair CLR 74.3 51.1 44% 30.03 0.0
29 05:55 S 12 10.00 Fair CLR 74.3 51.4 45% 30.04 0.0
29 05:35 S 12 10.00 Fair CLR 74.7 51.3 44% 30.04 0.0
29 05:15 S 13 10.00 Fair CLR 75.7 51.4 43% 78 30.04 0.0
29 04:55 S 13 10.00 Fair CLR 76.1 51.6 42% 78 30.04 0.0
29 04:35 S 13 10.00 Fair CLR 75.4 52 44% 78 30.05 0.0
29 04:15 S 13 10.00 Fair CLR 75.6 52.3 44% 78 30.05 0.0
29 03:35 S 12 10.00 Fair CLR 76.6 52.2 43% 78 30.04 0.0
29 03:15 S 10 10.00 Fair CLR 77.5 52.2 41% 79 30.05 0.0
29 02:55 S 9 10.00 Fair CLR 77.9 52.7 42% 79 30.05 0.0
29 02:35 S 10 10.00 Fair CLR 78.1 52.9 42% 79 30.05 0.0
29 02:15 S 14 10.00 Fair CLR 78.4 52.9 41% 79 30.05 0.0
29 01:55 S 13 10.00 Fair CLR 78.8 52.9 41% 79 30.05 0.0
29 01:35 S 14 G 21 10.00 Fair CLR 79.3 53.1 40% 80 30.06 0.0
29 01:15 S 10 G 17 10.00 Fair CLR 80.2 52.9 39% 80 30.06 0.0
29 00:55 S 13 G 18 10.00 Fair CLR 81.1 52.7 95.5 81.1 37% 81 30.05 0.0
29 00:35 S 14 G 20 10.00 Fair CLR 82.2 52.2 35% 81 30.05 0.0
29 00:15 S 15 G 20 10.00 Fair CLR 83.3 52 34% 82 30.05 0.0
28 23:55 S 15 G 21 10.00 Fair CLR 83.5 52.2 34% 82 30.05 0.0
28 23:35 S 15 10.00 Fair CLR 83.7 52.9 35% 82 30.05 0.0
28 23:15 S 16 10.00 Fair CLR 84.2 52.9 34% 83 30.05 0.0
28 22:55 SE 13 G 20 10.00 Fair CLR 84 53.6 35% 83 30.05 0.0
28 22:35 SE 10 10.00 Fair CLR 83.3 54.3 37% 82 30.05 0.0
28 22:15 SE 10 10.00 Fair CLR 83.5 53.6 36% 82 30.05 0.0
28 21:55 SE 9 10.00 Fair CLR 84.6 52.7 33% 83 30.04 0.0
28 21:35 SE 10 10.00 Fair CLR 85.1 52.5 33% 83 30.04 0.0
28 21:15 SE 8 10.00 Fair CLR 85.5 52.9 33% 84 30.03 0.0
28 20:55 SE 8 10.00 Fair CLR 86.5 53.1 32% 85 30.02 0.0
28 20:35 SE 8 10.00 Fair CLR 87.6 53.1 31% 85 30.01 0.0
28 20:15 SE 10 10.00 Fair CLR 89.6 53.4 29% 87 30.01 0.0
28 19:55 SE 10 10.00 Fair CLR 91.4 55 29% 89 30.01 0.0
28 19:35 SE 10 10.00 Fair CLR 93.4 56.3 29% 92 30.01 0.0
28 19:15 S 12 10.00 Fair CLR 94.5 57.2 29% 93 30.01 0.0
28 18:55 S 13 G 20 10.00 Fair CLR 95.5 56.8 98.6 91.6 27% 94 30.01 0.0
28 18:35 S 12 G 20 10.00 Fair CLR 96.1 56.7 27% 95 30.01 0.0
28 18:15 S 10 10.00 Partly Cloudy SCT085 96.8 56.7 26% 96 30.01 0.0
28 17:55 S 12 G 20 10.00 Fair CLR 96.8 57.6 27% 96 30.02 0.0
28 17:35 S 13 G 18 10.00 Fair CLR 97.7 57.4 26% 97 30.02 0.0
28 17:15 SW 13 G 18 10.00 Partly Cloudy SCT085 97 57.9 27% 96 30.03 0.0
28 16:55 S 9 G 20 10.00 Partly Cloudy SCT085 98.4 57.6 26% 98 30.03 0.0
28 16:35 SW 12 G 20 10.00 Partly Cloudy SCT075 SCT100 97.2 58.1 27% 96 30.04 0.0
28 16:15 S 13 G 17 10.00 Partly Cloudy SCT075 97.5 59.2 28% 97 30.05 0.0
28 15:55 S 15 G 21 10.00 Partly Cloudy SCT075 SCT095 97 59.5 29% 97 30.05 0.0
28 15:35 S 9 G 16 10.00 Fair CLR 95.7 59.5 30% 95 30.07 0.0
28 15:15 S 16 G 20 10.00 Partly Cloudy SCT070 95.7 59 29% 95 30.07 0.0
28 14:55 S 13 G 18 10.00 Fair CLR 96.1 59.4 29% 96 30.09 0.0
28 14:35 S 15 G 22 10.00 Fair CLR 95.9 60.3 31% 96 30.09 0.0
28 14:15 SW 15 G 23 10.00 Fair CLR 95.5 60.6 31% 96 30.1 0.0
28 13:55 S 13 G 21 10.00 Fair CLR 94.6 60.6 32% 95 30.11 0.0
28 13:35 S 9 G 23 10.00 Fair CLR 93.9 60.4 33% 94 30.11 0.0
28 13:15 SW 16 G 20 10.00 Fair CLR 92.8 60.8 34% 93 30.12 0.0
28 12:55 SW 8 G 18 10.00 Fair CLR 91.4 60.3 91.6 68 35% 91 30.14 0.0
28 12:35 SW 10 G 25 10.00 Fair CLR 90.5 60.4 37% 90 30.14 0.0
28 12:15 S 17 10.00 Fair CLR 89.8 60.1 37% 89 30.15 0.0
28 11:55 SW 16 10.00 Fair CLR 88.3 58.8 37% 88 30.16 0.0
28 11:35 S 15 10.00 Fair CLR 87.6 58.3 37% 87 30.16 0.0
28 11:15 S 13 10.00 Fair CLR 86.5 56.8 36% 85 30.16 0.0
28 10:55 S 13 10.00 Fair CLR 84.4 56.1 38% 83 30.16 0.0
28 10:35 S 14 10.00 Fair CLR 82.8 55.4 39% 82 30.16 0.0
28 10:15 S 14 10.00 Fair CLR 80.8 55.8 42% 81 30.16 0.0
28 09:55 S 9 10.00 Fair CLR 78.8 56.8 47% 80 30.16 0.0
28 09:35 SE 15 10.00 Fair CLR 78.1 57 48% 79 30.16 0.0
28 09:15 S 8 10.00 Fair CLR 76.6 58.5 54% 78 30.16 0.0
28 08:55 S 8 10.00 Fair CLR 74.5 59 59% 30.16 0.0
28 08:35 S 7 10.00 Fair CLR 72.9 60.1 64% 30.16 0.0
28 08:15 S 3 10.00 Fair CLR 70.7 62.2 75% 30.16 0.0
28 07:55 S 10 10.00 Partly Cloudy SCT120 71.1 61.5 72% 30.14 0.0
28 07:35 SE 9 10.00 Mostly Cloudy BKN120 68.9 64.4 86% 30.14 0.0
28 07:15 E 6 10.00 Mostly Cloudy BKN120 69.1 64.4 85% 30.16 0.0
28 06:55 S 8 10.00 Partly Cloudy SCT120 68 65.5 77.2 67.6 92% 30.14 0.0
28 06:35 S 12 10.00 Partly Cloudy SCT095 SCT120 68 65.1 91% 30.13 0.0
28 06:10 W 9 10.00 Partly Cloudy SCT120 68 66 93% 30.16 0.0
28 05:55 W 6 10.00 Fair CLR 68 65.5 92% 30.16 0.0
28 05:35 SW 5 10.00 Partly Cloudy SCT026 SCT042 SCT055 69.3 62.2 78% 30.14 0.0
28 05:20 SE 8 10.00 Light Rain SCT024 SCT042 BKN120 69.1 62.4 79% 30.12 0.0
28 04:50 Calm 10.00 Light Drizzle SCT050 SCT060 BKN110 69.4 61.5 76% 30.16 0.0
28 04:35 N 7 10.00 Light Rain SCT110 70 61 73% 30.18 0.0
28 04:15 N 9 10.00 Partly Cloudy SCT065 SCT090 SCT110 70.7 61 71% 30.21 0.0
28 03:55 N 23 G 28 10.00 Overcast and Breezy SCT065 BKN080 OVC110 73.6 60.8 64% 30.21 0.0
28 03:35 N 21 G 25 10.00 Mostly Cloudy and Breezy BKN080 BKN110 72.5 58.1 61% 30.19 0.0
28 03:15 Calm 10.00 Fair CLR 73.4 56.5 56% 30.15 0.0
28 02:55 Calm 10.00 Fair CLR 73.4 56.7 56% 30.15 0.0
28 02:35 SE 3 10.00 Fair CLR 74.3 56.5 54% 30.15 0.0
28 02:15 SE 5 10.00 Fair CLR 74.7 56.5 53% 30.14 0.0
28 01:55 SE 5 10.00 Fair CLR 74.3 58.1 57% 30.14 0.0
28 01:35 SE 6 10.00 Fair CLR 75.2 57.7 55% 78 30.14 0.0
28 01:15 SE 7 10.00 Fair CLR 75.7 58.3 55% 78 30.14 0.0
Date Time (cdt) Wind (mph) Vis. (mi.) Weather Sky Cond. Air Dwpt Max. Min. Relative Humidity Wind Chill (°F) Heat Index (°F) altimeter (in) sea level (mb) 1 hr 3 hr 6 hr
6 hour
Temperature (ºF) Pressure Precipitation (in)